Wetterdaten: Woche 15.08.16 - 21.08.16 (KW33)
Datum Zeit Temperatur Luftfeuchte Luftdruck Niederschlag Windrichtung Sonnenschein Solar Wind
15.08.2016 00:00 17,8 C 90 % 1019,0 hPa 0,0 l/m N 0,00 h 0 W/m 1,6 km/h (1 Bft)
15.08.2016 01:00 17,5 C 90 % 1018,9 hPa 0,0 l/m N 0,00 h 0 W/m 3,2 km/h (1 Bft)
15.08.2016 02:00 16,9 C 89 % 1018,5 hPa 0,0 l/m N 0,00 h 0 W/m 3,2 km/h (1 Bft)
15.08.2016 03:00 16,4 C 89 % 1018,3 hPa 0,0 l/m N 0,00 h 0 W/m 3,2 km/h (1 Bft)
15.08.2016 04:00 15,9 C 91 % 1018,1 hPa 0,0 l/m N 0,00 h 0 W/m 3,2 km/h (1 Bft)
15.08.2016 05:00 15,4 C 91 % 1017,9 hPa 0,0 l/m N 0,00 h 0 W/m 3,2 km/h (1 Bft)
15.08.2016 06:00 15,0 C 93 % 1018,0 hPa 0,0 l/m N 0,00 h 12 W/m 3,2 km/h (1 Bft)
15.08.2016 07:00 15,7 C 92 % 1018,1 hPa 0,0 l/m N 0,00 h 68 W/m 2,9 km/h (1 Bft)
15.08.2016 08:00 18,0 C 84 % 1018,0 hPa 0,0 l/m N 1,00 h 250 W/m 5,2 km/h (1 Bft)
15.08.2016 09:00 20,3 C 76 % 1017,9 hPa 0,0 l/m N-NO 1,00 h 423 W/m 7,2 km/h (2 Bft)
15.08.2016 10:00 22,7 C 68 % 1017,7 hPa 0,0 l/m O-SO 0,75 h 512 W/m 9,9 km/h (2 Bft)
15.08.2016 11:00 23,6 C 65 % 1017,5 hPa 0,0 l/m O 0,58 h 541 W/m 11,2 km/h (2 Bft)
15.08.2016 12:00 24,9 C 63 % 1017,3 hPa 0,0 l/m O-NO 1,00 h 778 W/m 12,1 km/h (2 Bft)
15.08.2016 13:00 25,8 C 61 % 1016,9 hPa 0,0 l/m O 0,83 h 701 W/m 9,8 km/h (2 Bft)
15.08.2016 14:00 26,0 C 59 % 1016,4 hPa 0,0 l/m NO 0,67 h 595 W/m 10,2 km/h (2 Bft)
15.08.2016 15:00 25,8 C 58 % 1016,1 hPa 0,0 l/m O 0,33 h 369 W/m 9,1 km/h (2 Bft)
15.08.2016 16:00 25,7 C 58 % 1015,7 hPa 0,0 l/m O-NO 0,17 h 193 W/m 8,8 km/h (2 Bft)
15.08.2016 17:00 25,4 C 60 % 1015,2 hPa 0,0 l/m O-NO 0,33 h 286 W/m 11,8 km/h (2 Bft)
15.08.2016 18:00 24,1 C 65 % 1015,2 hPa 0,0 l/m O-NO 0,17 h 111 W/m 6,4 km/h (2 Bft)
15.08.2016 19:00 23,8 C 67 % 1015,1 hPa 0,0 l/m O-SO 0,42 h 83 W/m 7,9 km/h (2 Bft)
15.08.2016 20:00 21,0 C 80 % 1015,4 hPa 0,0 l/m N 0,00 h 13 W/m 0,0 km/h (0 Bft)
15.08.2016 21:00 18,8 C 89 % 1015,6 hPa 0,0 l/m N 0,00 h 0 W/m 0,0 km/h (0 Bft)
15.08.2016 22:00 18,0 C 90 % 1015,7 hPa 0,0 l/m N 0,00 h 0 W/m 0,0 km/h (0 Bft)
15.08.2016 23:00 17,5 C 91 % 1015,7 hPa 0,0 l/m N 0,00 h 0 W/m 0,0 km/h (0 Bft)
16.08.2016 00:00 17,0 C 92 % 1015,6 hPa 0,0 l/m N 0,00 h 0 W/m 0,0 km/h (0 Bft)
16.08.2016 01:00 16,4 C 93 % 1015,4 hPa 0,0 l/m N 0,00 h 0 W/m 0,0 km/h (0 Bft)
16.08.2016 02:00 15,7 C 95 % 1015,1 hPa 0,0 l/m N 0,00 h 0 W/m 0,0 km/h (0 Bft)
16.08.2016 03:00 15,2 C 96 % 1014,8 hPa 0,0 l/m N 0,00 h 0 W/m 0,0 km/h (0 Bft)
16.08.2016 04:00 14,7 C 96 % 1014,5 hPa 0,0 l/m N 0,00 h 0 W/m 0,0 km/h (0 Bft)
16.08.2016 05:00 14,1 C 97 % 1014,4 hPa 0,0 l/m N 0,00 h 0 W/m 0,0 km/h (0 Bft)
16.08.2016 06:00 13,8 C 97 % 1014,4 hPa 0,0 l/m N 0,00 h 12 W/m 0,0 km/h (0 Bft)
16.08.2016 07:00 14,9 C 97 % 1014,4 hPa 0,0 l/m O-SO 0,08 h 83 W/m 0,7 km/h (0 Bft)
16.08.2016 08:00 16,9 C 91 % 1014,3 hPa 0,0 l/m N 1,00 h 246 W/m 0,5 km/h (0 Bft)
16.08.2016 09:00 19,4 C 83 % 1014,1 hPa 0,0 l/m N 1,00 h 417 W/m 0,0 km/h (0 Bft)
16.08.2016 10:00 21,3 C 78 % 1014,1 hPa 0,0 l/m O-SO 1,00 h 571 W/m 3,1 km/h (1 Bft)
16.08.2016 11:00 23,7 C 73 % 1013,6 hPa 0,0 l/m O-SO 1,00 h 699 W/m 4,3 km/h (1 Bft)
16.08.2016 12:00 24,9 C 69 % 1013,0 hPa 0,0 l/m O-SO 0,83 h 703 W/m 6,0 km/h (2 Bft)
16.08.2016 13:00 26,5 C 60 % 1012,5 hPa 0,0 l/m S 0,83 h 715 W/m 6,3 km/h (2 Bft)
16.08.2016 14:00 26,3 C 59 % 1011,8 hPa 0,0 l/m SW 0,42 h 496 W/m 6,1 km/h (2 Bft)
16.08.2016 15:00 25,9 C 57 % 1011,4 hPa 0,0 l/m NO 0,17 h 231 W/m 8,0 km/h (2 Bft)
16.08.2016 16:00 23,2 C 69 % 1011,3 hPa 0,0 l/m W-SW 0,08 h 143 W/m 10,1 km/h (2 Bft)
16.08.2016 17:00 24,3 C 66 % 1010,8 hPa 0,0 l/m SW 0,75 h 417 W/m 5,1 km/h (1 Bft)
16.08.2016 18:00 24,6 C 66 % 1009,9 hPa 0,0 l/m SW 1,00 h 279 W/m 4,3 km/h (1 Bft)
16.08.2016 19:00 22,7 C 78 % 1009,9 hPa 0,0 l/m N 0,00 h 24 W/m 0,0 km/h (0 Bft)
16.08.2016 20:00 20,5 C 79 % 1010,5 hPa 0,2 l/m N 0,17 h 13 W/m 0,0 km/h (0 Bft)
16.08.2016 21:00 18,0 C 88 % 1010,8 hPa 0,0 l/m N 0,00 h 0 W/m 0,0 km/h (0 Bft)
16.08.2016 22:00 16,9 C 91 % 1010,7 hPa 0,0 l/m N 0,00 h 0 W/m 0,0 km/h (0 Bft)
16.08.2016 23:00 16,6 C 93 % 1010,8 hPa 0,0 l/m N 0,00 h 0 W/m 0,0 km/h (0 Bft)
17.08.2016 00:00 16,5 C 90 % 1010,9 hPa 0,0 l/m N 0,00 h 0 W/m 0,0 km/h (0 Bft)
17.08.2016 01:00 16,1 C 86 % 1011,0 hPa 0,0 l/m N 0,00 h 0 W/m 0,0 km/h (0 Bft)
17.08.2016 02:00 15,0 C 89 % 1010,9 hPa 0,0 l/m N 0,00 h 0 W/m 0,0 km/h (0 Bft)
17.08.2016 03:00 13,6 C 95 % 1010,8 hPa 0,0 l/m N 0,00 h 0 W/m 0,0 km/h (0 Bft)
17.08.2016 04:00 12,9 C 96 % 1010,7 hPa 0,0 l/m N 0,00 h 0 W/m 0,0 km/h (0 Bft)
17.08.2016 05:00 12,9 C 96 % 1010,7 hPa 0,0 l/m N 0,00 h 0 W/m 0,0 km/h (0 Bft)
17.08.2016 06:00 13,0 C 95 % 1010,5 hPa 0,0 l/m N 0,00 h 10 W/m 0,0 km/h (0 Bft)
17.08.2016 07:00 13,3 C 95 % 1010,3 hPa 0,0 l/m N 0,00 h 38 W/m 0,0 km/h (0 Bft)
17.08.2016 08:00 14,3 C 91 % 1010,3 hPa 0,0 l/m N 0,00 h 97 W/m 0,0 km/h (0 Bft)
17.08.2016 09:00 15,2 C 86 % 1010,7 hPa 0,0 l/m NO 0,17 h 202 W/m 6,0 km/h (2 Bft)
17.08.2016 10:00 16,5 C 82 % 1011,0 hPa 0,0 l/m NO 0,33 h 285 W/m 6,0 km/h (2 Bft)
17.08.2016 11:00 17,7 C 79 % 1010,7 hPa 0,0 l/m NO 0,08 h 278 W/m 2,0 km/h (1 Bft)
17.08.2016 12:00 19,8 C 75 % 1010,5 hPa 0,0 l/m NO 0,67 h 535 W/m 4,0 km/h (1 Bft)
17.08.2016 13:00 21,0 C 71 % 1010,4 hPa 0,0 l/m NO 0,50 h 426 W/m 5,5 km/h (1 Bft)
17.08.2016 14:00 21,6 C 71 % 1009,9 hPa 0,0 l/m NO 0,08 h 342 W/m 3,5 km/h (1 Bft)
17.08.2016 15:00 22,0 C 70 % 1009,4 hPa 0,0 l/m O-NO 0,08 h 307 W/m 5,9 km/h (2 Bft)
17.08.2016 16:00 22,4 C 69 % 1009,1 hPa 0,0 l/m O-NO 0,25 h 326 W/m 5,1 km/h (1 Bft)
17.08.2016 17:00 21,3 C 76 % 1008,8 hPa 0,0 l/m O-NO 0,00 h 70 W/m 2,8 km/h (1 Bft)
17.08.2016 18:00 20,9 C 78 % 1008,4 hPa 0,0 l/m O-NO 0,00 h 85 W/m 4,3 km/h (1 Bft)
17.08.2016 19:00 20,2 C 84 % 1008,3 hPa 0,0 l/m N 0,00 h 34 W/m 0,0 km/h (0 Bft)
17.08.2016 20:00 18,8 C 90 % 1008,5 hPa 0,0 l/m N 0,00 h 9 W/m 0,0 km/h (0 Bft)
17.08.2016 21:00 17,8 C 91 % 1008,7 hPa 0,0 l/m N 0,00 h 0 W/m 0,0 km/h (0 Bft)
17.08.2016 22:00 17,0 C 93 % 1009,1 hPa 0,0 l/m N 0,00 h 0 W/m 0,0 km/h (0 Bft)
17.08.2016 23:00 16,9 C 95 % 1009,1 hPa 0,0 l/m N 0,00 h 0 W/m 0,0 km/h (0 Bft)
18.08.2016 00:00 16,9 C 94 % 1008,9 hPa 7,6 l/m N 0,00 h 0 W/m 0,0 km/h (0 Bft)
18.08.2016 01:00 16,0 C 95 % 1008,7 hPa 0,4 l/m N 0,00 h 0 W/m 0,0 km/h (0 Bft)
18.08.2016 02:00 15,6 C 97 % 1008,4 hPa 0,0 l/m N 0,00 h 0 W/m 0,0 km/h (0 Bft)
18.08.2016 03:00 15,3 C 98 % 1008,2 hPa 0,0 l/m N 0,00 h 0 W/m 0,0 km/h (0 Bft)
18.08.2016 04:00 15,3 C 99 % 1008,1 hPa 0,0 l/m N 0,00 h 0 W/m 0,0 km/h (0 Bft)
18.08.2016 05:00 15,1 C 99 % 1007,8 hPa 0,0 l/m N 0,00 h 0 W/m 0,0 km/h (0 Bft)
18.08.2016 06:00 14,3 C 99 % 1007,7 hPa 0,0 l/m N 0,00 h 9 W/m 0,0 km/h (0 Bft)
18.08.2016 07:00 14,3 C 99 % 1007,9 hPa 0,0 l/m N 0,17 h 72 W/m 0,0 km/h (0 Bft)
18.08.2016 08:00 15,8 C 99 % 1007,9 hPa 0,0 l/m SW 1,00 h 255 W/m 1,9 km/h (1 Bft)
18.08.2016 09:00 18,0 C 93 % 1007,8 hPa 0,0 l/m SW 0,92 h 414 W/m 7,5 km/h (2 Bft)
18.08.2016 10:00 19,9 C 85 % 1007,9 hPa 0,0 l/m W-SW 0,50 h 380 W/m 14,0 km/h (3 Bft)
18.08.2016 11:00 19,3 C 85 % 1008,1 hPa 0,0 l/m W 0,00 h 157 W/m 10,2 km/h (2 Bft)
18.08.2016 12:00 19,9 C 83 % 1008,0 hPa 0,0 l/m W-SW 0,00 h 263 W/m 11,3 km/h (2 Bft)
18.08.2016 13:00 21,1 C 79 % 1007,8 hPa 0,0 l/m SW 0,00 h 216 W/m 10,3 km/h (2 Bft)
18.08.2016 14:00 15,8 C 91 % 1008,2 hPa 11,2 l/m N 0,00 h 44 W/m 24,8 km/h (4 Bft)
18.08.2016 15:00 16,6 C 94 % 1007,6 hPa 0,0 l/m N 0,00 h 128 W/m 22,5 km/h (4 Bft)
18.08.2016 16:00 16,0 C 93 % 1008,0 hPa 0,2 l/m N 0,00 h 49 W/m 22,5 km/h (4 Bft)
18.08.2016 17:00 16,3 C 96 % 1008,3 hPa 0,2 l/m N 0,00 h 57 W/m 22,5 km/h (4 Bft)
18.08.2016 18:00 15,8 C 97 % 1008,7 hPa 1,6 l/m W-SW 0,00 h 19 W/m 7,2 km/h (2 Bft)
18.08.2016 19:00 15,4 C 98 % 1009,0 hPa 1,2 l/m SW 0,00 h 18 W/m 7,8 km/h (2 Bft)
18.08.2016 20:00 15,4 C 98 % 1009,5 hPa 0,0 l/m SW 0,00 h 5 W/m 9,0 km/h (2 Bft)
18.08.2016 21:00 15,1 C 98 % 1009,8 hPa 0,0 l/m SW 0,00 h 0 W/m 14,1 km/h (3 Bft)
18.08.2016 22:00 14,8 C 98 % 1009,8 hPa 0,0 l/m SW 0,00 h 0 W/m 10,6 km/h (2 Bft)
18.08.2016 23:00 14,4 C 98 % 1009,7 hPa 0,0 l/m SW 0,00 h 0 W/m 5,5 km/h (1 Bft)
19.08.2016 00:00 14,3 C 99 % 1009,8 hPa 0,0 l/m N 0,00 h 0 W/m 0,9 km/h (0 Bft)
19.08.2016 01:00 14,4 C 99 % 1009,9 hPa 0,0 l/m SW 0,00 h 0 W/m 1,3 km/h (1 Bft)
19.08.2016 02:00 14,5 C 99 % 1009,7 hPa 0,0 l/m N 0,00 h 0 W/m 0,1 km/h (0 Bft)
19.08.2016 03:00 14,3 C 99 % 1009,4 hPa 0,0 l/m N 0,00 h 0 W/m 0,5 km/h (0 Bft)
19.08.2016 04:00 14,1 C 99 % 1009,4 hPa 0,0 l/m N 0,00 h 0 W/m 0,0 km/h (0 Bft)
19.08.2016 05:00 14,4 C 99 % 1009,8 hPa 0,0 l/m N 0,00 h 0 W/m 0,0 km/h (0 Bft)
19.08.2016 06:00 14,3 C 100 % 1010,0 hPa 0,0 l/m SW 0,00 h 8 W/m 1,6 km/h (1 Bft)
19.08.2016 07:00 14,5 C 100 % 1010,1 hPa 0,0 l/m SW 0,00 h 27 W/m 4,6 km/h (1 Bft)
19.08.2016 08:00 15,3 C 100 % 1010,4 hPa 0,0 l/m SW 0,00 h 101 W/m 4,9 km/h (1 Bft)
19.08.2016 09:00 16,8 C 98 % 1010,5 hPa 0,0 l/m SW 0,25 h 228 W/m 6,4 km/h (2 Bft)
19.08.2016 10:00 17,9 C 91 % 1010,5 hPa 0,0 l/m W-SW 0,08 h 221 W/m 7,4 km/h (2 Bft)
19.08.2016 11:00 19,5 C 86 % 1010,3 hPa 0,0 l/m SW 0,25 h 365 W/m 5,2 km/h (1 Bft)
19.08.2016 12:00 20,4 C 80 % 1010,3 hPa 0,0 l/m SW 0,33 h 441 W/m 6,4 km/h (2 Bft)
19.08.2016 13:00 22,0 C 74 % 1010,0 hPa 0,0 l/m SW 0,83 h 660 W/m 13,6 km/h (3 Bft)
19.08.2016 14:00 22,8 C 67 % 1009,7 hPa 0,0 l/m SW 0,83 h 620 W/m 10,9 km/h (2 Bft)
19.08.2016 15:00 22,6 C 67 % 1009,5 hPa 0,0 l/m W-NW 0,42 h 390 W/m 8,6 km/h (2 Bft)
19.08.2016 16:00 23,2 C 63 % 1009,4 hPa 0,0 l/m SW 0,92 h 558 W/m 11,7 km/h (2 Bft)
19.08.2016 17:00 22,6 C 65 % 1009,2 hPa 0,0 l/m W-SW 0,42 h 259 W/m 10,2 km/h (2 Bft)
19.08.2016 18:00 21,8 C 70 % 1009,3 hPa 0,0 l/m W-SW 0,58 h 243 W/m 7,1 km/h (2 Bft)
19.08.2016 19:00 20,3 C 77 % 1009,6 hPa 0,0 l/m W-SW 0,00 h 44 W/m 2,8 km/h (1 Bft)
19.08.2016 20:00 18,3 C 86 % 1010,0 hPa 0,0 l/m W-SW 0,00 h 8 W/m 1,2 km/h (1 Bft)
19.08.2016 21:00 17,2 C 91 % 1010,6 hPa 0,0 l/m N 0,00 h 0 W/m 0,0 km/h (0 Bft)
19.08.2016 22:00 17,5 C 92 % 1010,9 hPa 0,0 l/m W-SW 0,00 h 0 W/m 1,9 km/h (1 Bft)
19.08.2016 23:00 17,0 C 94 % 1010,8 hPa 0,0 l/m N 0,00 h 0 W/m 0,0 km/h (0 Bft)
20.08.2016 00:00 16,0 C 96 % 1011,0 hPa 0,0 l/m N 0,00 h 0 W/m 0,0 km/h (0 Bft)
20.08.2016 01:00 15,8 C 98 % 1011,2 hPa 0,0 l/m N 0,00 h 0 W/m 0,0 km/h (0 Bft)
20.08.2016 02:00 16,3 C 98 % 1011,3 hPa 0,0 l/m N 0,00 h 0 W/m 0,0 km/h (0 Bft)
20.08.2016 03:00 16,2 C 98 % 1011,5 hPa 0,0 l/m N 0,00 h 0 W/m 0,0 km/h (0 Bft)
20.08.2016 04:00 15,9 C 98 % 1011,5 hPa 0,0 l/m N 0,00 h 0 W/m 0,0 km/h (0 Bft)
20.08.2016 05:00 15,4 C 99 % 1011,4 hPa 0,0 l/m N 0,00 h 0 W/m 0,0 km/h (0 Bft)
20.08.2016 06:00 15,2 C 99 % 1011,5 hPa 0,2 l/m N 0,00 h 12 W/m 0,0 km/h (0 Bft)
20.08.2016 07:00 15,5 C 99 % 1011,6 hPa 0,0 l/m N 0,25 h 78 W/m 0,0 km/h (0 Bft)
20.08.2016 08:00 17,8 C 95 % 1011,4 hPa 0,0 l/m W-SW 1,00 h 254 W/m 2,5 km/h (1 Bft)
20.08.2016 09:00 20,3 C 88 % 1011,5 hPa 0,0 l/m W-SW 1,00 h 450 W/m 3,5 km/h (1 Bft)
20.08.2016 10:00 21,0 C 85 % 1011,4 hPa 0,0 l/m W-SW 0,00 h 207 W/m 2,9 km/h (1 Bft)
20.08.2016 11:00 21,9 C 77 % 1011,2 hPa 0,0 l/m W-SW 0,08 h 328 W/m 2,8 km/h (1 Bft)
20.08.2016 12:00 21,4 C 80 % 1011,8 hPa 0,0 l/m W-SW 0,00 h 101 W/m 4,5 km/h (1 Bft)
20.08.2016 13:00 21,1 C 79 % 1012,4 hPa 0,0 l/m W-SW 0,00 h 132 W/m 7,2 km/h (2 Bft)
20.08.2016 14:00 19,6 C 85 % 1012,8 hPa 0,2 l/m W-SW 0,00 h 90 W/m 7,1 km/h (2 Bft)
20.08.2016 15:00 19,4 C 86 % 1012,7 hPa 0,0 l/m W 0,00 h 142 W/m 1,3 km/h (1 Bft)
20.08.2016 16:00 19,6 C 87 % 1013,0 hPa 0,0 l/m W 0,00 h 72 W/m 6,2 km/h (2 Bft)
20.08.2016 17:00 19,3 C 90 % 1013,1 hPa 0,0 l/m SW 0,00 h 59 W/m 12,8 km/h (3 Bft)
20.08.2016 18:00 18,9 C 89 % 1013,1 hPa 0,0 l/m SW 0,00 h 42 W/m 9,5 km/h (2 Bft)
20.08.2016 19:00 18,6 C 88 % 1013,0 hPa 0,0 l/m W-SW 0,00 h 21 W/m 9,8 km/h (2 Bft)
20.08.2016 20:00 18,1 C 92 % 1013,4 hPa 0,4 l/m W-SW 0,00 h 9 W/m 9,4 km/h (2 Bft)
20.08.2016 21:00 17,5 C 95 % 1014,1 hPa 0,0 l/m SW 0,00 h 0 W/m 9,2 km/h (2 Bft)
20.08.2016 22:00 16,3 C 95 % 1014,8 hPa 1,0 l/m N-NW 0,00 h 0 W/m 11,6 km/h (2 Bft)
20.08.2016 23:00 15,0 C 96 % 1015,6 hPa 4,8 l/m W-NW 0,00 h 0 W/m 10,9 km/h (2 Bft)
21.08.2016 00:00 14,6 C 98 % 1016,5 hPa 0,8 l/m W-NW 0,00 h 0 W/m 10,5 km/h (2 Bft)
21.08.2016 01:00 13,6 C 97 % 1017,4 hPa 0,0 l/m W-SW 0,00 h 0 W/m 19,4 km/h (3 Bft)
21.08.2016 02:00 13,2 C 97 % 1017,4 hPa 0,0 l/m W-SW 0,00 h 0 W/m 20,6 km/h (4 Bft)
21.08.2016 03:00 13,0 C 96 % 1017,6 hPa 0,0 l/m SW 0,00 h 0 W/m 15,0 km/h (3 Bft)
21.08.2016 04:00 12,5 C 97 % 1017,5 hPa 0,0 l/m SW 0,00 h 0 W/m 12,1 km/h (2 Bft)
21.08.2016 05:00 12,2 C 97 % 1017,5 hPa 0,0 l/m W-SW 0,00 h 0 W/m 12,5 km/h (3 Bft)
21.08.2016 06:00 12,1 C 96 % 1017,6 hPa 0,2 l/m W-SW 0,00 h 14 W/m 4,7 km/h (1 Bft)
21.08.2016 07:00 12,5 C 96 % 1017,9 hPa 0,0 l/m N 0,00 h 26 W/m 0,3 km/h (0 Bft)
21.08.2016 08:00 13,0 C 97 % 1018,2 hPa 0,0 l/m W-SW 0,00 h 27 W/m 4,6 km/h (1 Bft)
21.08.2016 09:00 13,2 C 97 % 1018,3 hPa 0,0 l/m S-SW 0,00 h 65 W/m 11,2 km/h (2 Bft)
21.08.2016 10:00 14,1 C 96 % 1018,7 hPa 0,0 l/m SW 0,00 h 164 W/m 13,8 km/h (3 Bft)
21.08.2016 11:00 16,1 C 90 % 1018,8 hPa 0,0 l/m W-SW 0,58 h 493 W/m 17,4 km/h (3 Bft)
21.08.2016 12:00 18,0 C 77 % 1018,4 hPa 0,0 l/m W-SW 0,50 h 567 W/m 22,7 km/h (4 Bft)
21.08.2016 13:00 18,9 C 68 % 1018,3 hPa 0,0 l/m W-NW 0,50 h 623 W/m 24,9 km/h (4 Bft)
21.08.2016 14:00 19,7 C 61 % 1018,5 hPa 0,0 l/m W-SW 0,58 h 588 W/m 25,4 km/h (4 Bft)
21.08.2016 15:00 19,6 C 58 % 1018,7 hPa 0,0 l/m W 0,58 h 488 W/m 21,2 km/h (4 Bft)
21.08.2016 16:00 19,7 C 52 % 1018,9 hPa 0,0 l/m W 0,67 h 519 W/m 22,9 km/h (4 Bft)
21.08.2016 17:00 19,5 C 52 % 1019,2 hPa 0,0 l/m W 0,75 h 397 W/m 21,2 km/h (4 Bft)
21.08.2016 18:00 18,7 C 54 % 1019,7 hPa 0,0 l/m W-NW 0,92 h 265 W/m 17,0 km/h (3 Bft)
21.08.2016 19:00 17,4 C 57 % 1020,5 hPa 0,0 l/m W-NW 0,33 h 67 W/m 13,7 km/h (3 Bft)
21.08.2016 20:00 15,1 C 67 % 1021,7 hPa 0,0 l/m W-NW 0,00 h 9 W/m 9,9 km/h (2 Bft)
21.08.2016 21:00 13,6 C 74 % 1022,9 hPa 0,0 l/m W-NW 0,00 h 0 W/m 3,1 km/h (1 Bft)
21.08.2016 22:00 11,9 C 84 % 1023,6 hPa 0,0 l/m N 0,00 h 0 W/m 0,0 km/h (0 Bft)
21.08.2016 23:00 10,8 C 90 % 1023,9 hPa 0,0 l/m N 0,00 h 0 W/m 0,1 km/h (0 Bft)
Min-Datum _ 21.08.16 21.08.16 18.08.16 - - - - 15.08.16
_ Min-Zeit 23:55 17:20 15:20 - - - - 00:00
Minimum _ 10,5 C 49 % 1007,3 hPa - - - - 0,0 km/h (0 Bft)
Max-Datum _ 16.08.16 18.08.16 21.08.16 18.08.16 - 15.08.16 19.08.16 18.08.16
_ Max-Zeit 14:25 07:55 23:40 14:00 - 08:00 12:50 14:00
Maximum _ 27,4 C 100 % 1024,1 hPa 11,2 l/m - 0,08 h 1099 W/m 49,9 km/h
W-NW (6 Bft)
Durchschnitt _ 17,9 C 85 % 1012,8 hPa #30,2 l/m W-SW #33:00 h 244 W/m 5,8 km/h (2 Bft)